Time;durP1;ratioP1;P1;durP2;ratioP2;P2;SDS_P1;SDS_P2;PMS_P1;PMS_P2;Temp;Humidity;BMP_temperature;BMP_pressure;BME280_temperature;BME280_humidity;BME280_pressure;Samples;Min_cycle;Max_cycle;Signal;HPM_P1;HPM_P2
2021/08/23 00:00:58;;;;;;;;;;;;;;;7.13;98.94;100005.28;4981744;28;19929;-94
2021/08/23 03:19:47;;;;;;;;;;;;;;;6.79;94.61;99963.97;4991255;23;20438;-91
2021/08/23 03:22:12;;;;;;;;;;;;;;;6.90;96.47;99969.84;4950032;28;19926;-91
2021/08/23 03:24:38;;;;;;;;;;;;;;;6.91;95.41;99966.31;4950719;28;19925;-96
2021/08/23 03:27:03;;;;;;;;;;;;;;;6.96;95.88;99964.44;4949247;28;19919;-91
2021/08/23 03:29:29;;;;;;;;;;;;;;;6.81;95.55;99970.06;4948345;28;19954;-91
2021/08/23 03:31:54;;;;;;;;;;;;;;;6.99;100.00;99959.06;4966464;28;19993;-91
2021/08/23 03:34:19;;;;;;;;;;;;;;;7.32;100.00;99958.22;4948447;28;19918;-93
2021/08/23 03:36:45;;;;;;;;;;;;;;;7.37;100.00;99951.06;4947561;28;19918;-91
2021/08/23 03:39:11;;;;;;;;;;;;;;;7.36;100.00;99951.97;4948060;28;20374;-92
2021/08/23 03:41:37;;;;;;;;;;;;;;;7.37;100.00;99951.06;4957799;28;20009;-92
2021/08/23 03:44:03;;;;;;;;;;;;;;;7.45;100.00;99942.06;4948465;28;20439;-91
2021/08/23 03:46:30;;;;;;;;;;;;;;;7.40;100.00;99957.13;4958567;28;19938;-94
2021/08/23 03:48:55;;;;;;;;;;;;;;;7.42;100.00;99951.81;4947684;28;19922;-93
2021/08/23 03:51:21;;;;;;;;;;;;;;;7.39;100.00;99947.47;4948457;28;19925;-90
2021/08/23 03:53:46;;;;;;;;;;;;;;;7.22;100.00;99944.44;4948878;28;19919;-91
2021/08/23 03:56:14;;;;;;;;;;;;;;;7.22;100.00;99954.97;4948422;28;19953;-95
2021/08/23 03:58:39;;;;;;;;;;;;;;;7.31;100.00;99953.84;4949551;28;20356;-91
2021/08/23 04:01:04;;;;;;;;;;;;;;;7.71;100.00;99950.16;4948505;28;19965;-89
2021/08/23 04:03:30;;;;;;;;;;;;;;;7.91;100.00;99954.81;4963860;28;19925;-90
2021/08/23 04:05:55;;;;;;;;;;;;;;;7.93;100.00;99958.28;4965777;28;20052;-90
2021/08/23 04:08:20;;;;;;;;;;;;;;;7.88;100.00;99949.63;4965997;28;19928;-90
2021/08/23 04:10:47;;;;;;;;;;;;;;;7.84;100.00;99956.78;4948095;28;19918;-90
2021/08/23 04:13:12;;;;;;;;;;;;;;;7.78;100.00;99954.31;4947296;28;20016;-90
2021/08/23 04:15:37;;;;;;;;;;;;;;;7.59;100.00;99948.69;4946717;28;20385;-90
2021/08/23 04:18:02;;;;;;;;;;;;;;;7.63;100.00;99953.84;4963191;28;19926;-95
2021/08/23 04:20:28;;;;;;;;;;;;;;;7.60;100.00;99958.34;4947539;28;20005;-88
2021/08/23 04:22:53;;;;;;;;;;;;;;;7.52;100.00;99952.44;4947061;28;20437;-88
2021/08/23 04:25:18;;;;;;;;;;;;;;;7.43;100.00;99954.38;4964295;28;20357;-88
2021/08/23 04:27:43;;;;;;;;;;;;;;;7.43;100.00;99959.66;4947233;28;19918;-89
2021/08/23 04:30:09;;;;;;;;;;;;;;;7.44;100.00;99958.75;4948403;28;19929;-88
2021/08/23 04:32:34;;;;;;;;;;;;;;;7.51;100.00;99955.97;4963011;28;19923;-88
2021/08/23 04:34:59;;;;;;;;;;;;;;;7.36;100.00;99958.13;4964432;28;19919;-88
2021/08/23 04:37:25;;;;;;;;;;;;;;;7.34;100.00;99959.03;4946727;28;19961;-88
2021/08/23 04:39:50;;;;;;;;;;;;;;;7.45;100.00;99957.88;4964656;28;19922;-88
2021/08/23 04:42:15;;;;;;;;;;;;;;;7.28;100.00;99960.09;4947698;28;19926;-88
2021/08/23 04:44:43;;;;;;;;;;;;;;;7.29;100.00;99964.44;4964141;28;19918;-89
2021/08/23 04:47:09;;;;;;;;;;;;;;;7.26;100.00;99961.91;4947646;28;20016;-94
2021/08/23 08:01:29;;;;;;;;;;;;;;;6.99;100.00;99995.97;4952023;29;19945;-95
2021/08/23 08:03:54;;;;;;;;;;;;;;;7.14;100.00;99996.47;4951789;29;20056;-95
2021/08/23 08:06:19;;;;;;;;;;;;;;;7.07;100.00;99998.41;4955091;29;20408;-93
2021/08/23 08:08:45;;;;;;;;;;;;;;;7.04;100.00;100007.25;4953908;29;19923;-95
2021/08/23 08:11:10;;;;;;;;;;;;;;;6.84;100.00;100006.88;4966944;28;19919;-94
2021/08/23 08:13:35;;;;;;;;;;;;;;;6.70;100.00;100007.19;4954226;29;19918;-93
2021/08/23 08:16:04;;;;;;;;;;;;;;;6.87;100.00;100012.06;4953795;29;19930;-92
2021/08/23 08:18:29;;;;;;;;;;;;;;;6.98;99.73;100014.44;4955224;29;19922;-92
2021/08/23 08:20:54;;;;;;;;;;;;;;;7.17;100.00;100009.59;4947366;29;19941;-94
2021/08/23 08:23:19;;;;;;;;;;;;;;;7.03;100.00;100012.56;4956390;29;20396;-91
2021/08/23 08:25:45;;;;;;;;;;;;;;;7.03;100.00;100007.28;4953904;29;19922;-93
2021/08/23 08:28:11;;;;;;;;;;;;;;;7.19;99.27;100010.41;4953331;29;19929;-92
2021/08/23 08:30:36;;;;;;;;;;;;;;;7.07;100.00;100014.22;4950785;29;19922;-95
2021/08/23 08:33:01;;;;;;;;;;;;;;;7.01;99.77;100015.22;4951459;29;19965;-92
2021/08/23 08:35:27;;;;;;;;;;;;;;;7.06;100.00;100015.13;4953448;29;19961;-93
2021/08/23 08:37:52;;;;;;;;;;;;;;;7.04;99.93;100028.31;4953885;28;19924;-95
2021/08/23 08:40:18;;;;;;;;;;;;;;;7.00;99.97;100029.28;4954996;29;19923;-93
2021/08/23 08:42:43;;;;;;;;;;;;;;;7.15;100.00;100027.19;4951068;29;19919;-90
2021/08/23 08:45:09;;;;;;;;;;;;;;;7.02;100.00;100027.50;4954150;29;20396;-92
2021/08/23 08:47:35;;;;;;;;;;;;;;;7.13;100.00;100034.28;4954872;29;19973;-95
2021/08/23 08:50:02;;;;;;;;;;;;;;;7.13;100.00;100029.00;4954609;29;20005;-91
2021/08/23 08:52:27;;;;;;;;;;;;;;;7.12;100.00;100028.16;4954453;29;19923;-95
2021/08/23 08:54:52;;;;;;;;;;;;;;;7.17;100.00;100028.03;4952167;29;19986;-95
2021/08/23 08:57:18;;;;;;;;;;;;;;;7.21;100.00;100032.31;4952535;29;19946;-95
2021/08/23 08:59:44;;;;;;;;;;;;;;;7.05;100.00;100037.97;4954939;28;19950;-94
2021/08/23 09:02:09;;;;;;;;;;;;;;;7.27;100.00;100032.16;4955015;28;19930;-93
2021/08/23 09:04:36;;;;;;;;;;;;;;;7.14;99.97;100034.22;4957362;28;19925;-92
2021/08/23 09:07:02;;;;;;;;;;;;;;;7.15;100.00;100032.44;4973697;28;19930;-94
2021/08/23 09:09:27;;;;;;;;;;;;;;;7.16;100.00;100039.47;4973596;28;19922;-90
2021/08/23 09:11:55;;;;;;;;;;;;;;;7.16;100.00;100048.22;4974907;28;19918;-96
2021/08/23 09:14:20;;;;;;;;;;;;;;;6.87;100.00;100051.56;4957339;28;19926;-90
2021/08/23 09:16:46;;;;;;;;;;;;;;;7.07;100.00;100049.34;4955615;28;20332;-93
2021/08/23 09:19:25;;;;;;;;;;;;;;;7.13;100.00;100050.94;4956114;28;19925;-94
2021/08/23 09:21:57;;;;;;;;;;;;;;;7.12;100.00;100048.38;4954989;28;19926;-95
2021/08/23 09:24:23;;;;;;;;;;;;;;;7.30;100.00;100052.31;4957341;28;19923;-92
2021/08/23 09:26:48;;;;;;;;;;;;;;;7.28;100.00;100053.19;4975949;28;19980;-94
2021/08/23 09:29:13;;;;;;;;;;;;;;;7.27;100.00;100056.75;4957389;28;20301;-95
2021/08/23 09:31:39;;;;;;;;;;;;;;;7.12;100.00;100058.91;4958425;28;20016;-96
2021/08/23 09:34:09;;;;;;;;;;;;;;;7.10;100.00;100061.59;4958113;28;20057;-89
2021/08/23 09:36:34;;;;;;;;;;;;;;;7.15;100.00;100057.06;4955870;28;19954;-90
2021/08/23 09:39:04;;;;;;;;;;;;;;;7.25;100.00;100060.31;4958062;28;20373;-93
2021/08/23 09:41:31;;;;;;;;;;;;;;;7.33;100.00;100063.63;4957135;28;19937;-95
2021/08/23 09:44:10;;;;;;;;;;;;;;;7.23;100.00;100062.16;4951040;28;19923;-95
2021/08/23 09:46:36;;;;;;;;;;;;;;;7.14;100.00;100063.22;4973503;28;19922;-94
2021/08/23 09:49:04;;;;;;;;;;;;;;;7.11;100.00;100068.56;4959314;28;19977;-91
2021/08/23 09:51:36;;;;;;;;;;;;;;;7.23;100.00;100067.41;4960813;28;19926;-95
2021/08/23 09:54:04;;;;;;;;;;;;;;;7.25;100.00;100063.81;4958655;28;19922;-94
2021/08/23 09:56:31;;;;;;;;;;;;;;;7.29;100.00;100067.25;4965578;28;20013;-93
2021/08/23 09:58:57;;;;;;;;;;;;;;;7.34;100.00;100062.75;4960415;28;19918;-94
2021/08/23 10:01:22;;;;;;;;;;;;;;;7.20;100.00;100073.63;4975861;28;19981;-94
2021/08/23 10:03:48;;;;;;;;;;;;;;;7.19;100.00;100074.50;4976376;28;19922;-90
2021/08/23 10:06:13;;;;;;;;;;;;;;;7.12;100.00;100072.09;4976918;28;19926;-95
2021/08/23 10:08:39;;;;;;;;;;;;;;;7.16;100.00;100076.34;4958375;28;20317;-91
2021/08/23 10:11:05;;;;;;;;;;;;;;;7.26;100.00;100075.25;4968486;28;20293;-91
2021/08/23 10:13:30;;;;;;;;;;;;;;;7.36;100.00;100078.53;4958651;28;20060;-89
2021/08/23 10:15:56;;;;;;;;;;;;;;;7.37;100.00;100085.50;4960507;28;20342;-90
2021/08/23 10:18:21;;;;;;;;;;;;;;;7.23;100.00;100089.34;4977886;28;19922;-93
2021/08/23 10:20:46;;;;;;;;;;;;;;;7.33;100.00;100084.72;4959409;28;19965;-95
2021/08/23 10:23:15;;;;;;;;;;;;;;;7.27;100.00;100085.75;4959940;28;19923;-93
2021/08/23 10:25:40;;;;;;;;;;;;;;;7.25;100.00;100092.81;4960114;28;20488;-90
2021/08/23 10:28:08;;;;;;;;;;;;;;;7.33;99.34;100090.00;4958443;28;20009;-94
2021/08/23 10:30:34;;;;;;;;;;;;;;;7.27;100.00;100088.41;4960017;28;19929;-95
2021/08/23 10:33:16;;;;;;;;;;;;;;;7.12;99.17;100090.53;4960785;28;19918;-92
2021/08/23 10:35:45;;;;;;;;;;;;;;;7.18;100.00;100087.72;4973805;28;19941;-95
2021/08/23 10:38:15;;;;;;;;;;;;;;;7.11;100.00;100087.00;4973649;28;19922;-95
2021/08/23 10:40:40;;;;;;;;;;;;;;;7.23;99.66;100091.13;4958340;28;19922;-95
2021/08/23 10:43:13;;;;;;;;;;;;;;;6.98;98.73;100088.22;4959222;28;19922;-95
2021/08/23 10:45:38;;;;;;;;;;;;;;;6.95;100.00;100086.50;4959189;28;19922;-90
2021/08/23 10:48:11;;;;;;;;;;;;;;;6.98;98.89;100086.44;4958516;28;20433;-92
2021/08/23 10:50:37;;;;;;;;;;;;;;;7.06;99.07;100088.91;4967512;28;19922;-94
2021/08/23 10:53:10;;;;;;;;;;;;;;;7.08;99.92;100085.34;4979027;28;19922;-91
2021/08/23 10:55:37;;;;;;;;;;;;;;;7.23;100.00;100088.50;4959634;28;19926;-91
2021/08/23 10:58:03;;;;;;;;;;;;;;;7.25;99.24;100081.41;4972820;28;19922;-91
2021/08/23 11:00:34;;;;;;;;;;;;;;;7.22;98.66;100082.34;4959540;28;19926;-91
2021/08/23 11:02:59;;;;;;;;;;;;;;;7.14;98.58;100086.94;4975450;28;19961;-91
2021/08/23 11:05:25;;;;;;;;;;;;;;;7.12;98.65;100090.53;4959641;28;19980;-91
2021/08/23 11:07:58;;;;;;;;;;;;;;;7.15;98.62;100087.78;4960241;28;19919;-92
2021/08/23 11:10:24;;;;;;;;;;;;;;;7.11;98.23;100094.06;4959269;28;19914;-91
2021/08/23 11:12:54;;;;;;;;;;;;;;;7.12;99.31;100091.38;4959303;28;19926;-92
2021/08/23 11:15:20;;;;;;;;;;;;;;;7.06;98.46;100087.13;4958583;28;20041;-91
2021/08/23 11:17:50;;;;;;;;;;;;;;;7.13;99.46;100084.34;4959199;28;19922;-92
2021/08/23 11:20:21;;;;;;;;;;;;;;;7.16;98.33;100092.16;4958862;28;20354;-93
2021/08/23 11:22:52;;;;;;;;;;;;;;;6.98;98.86;100082.94;4953837;28;19969;-93
2021/08/23 11:25:24;;;;;;;;;;;;;;;7.05;100.00;100085.41;4973844;28;19974;-91
2021/08/23 11:27:53;;;;;;;;;;;;;;;7.21;100.00;100085.91;4972791;28;19926;-91
2021/08/23 11:30:26;;;;;;;;;;;;;;;7.21;100.00;100075.34;4970155;28;19926;-93
2021/08/23 11:32:51;;;;;;;;;;;;;;;7.15;99.09;100077.25;4968182;28;19988;-90
2021/08/23 11:35:16;;;;;;;;;;;;;;;7.15;98.80;100071.97;4958775;28;20397;-89
2021/08/23 11:37:43;;;;;;;;;;;;;;;7.18;99.57;100077.19;4958063;28;19922;-93
2021/08/23 11:40:08;;;;;;;;;;;;;;;7.30;98.84;100073.41;4974675;28;19922;-90
2021/08/23 11:42:34;;;;;;;;;;;;;;;7.20;99.42;100070.13;4957937;28;19976;-91
2021/08/23 11:45:00;;;;;;;;;;;;;;;7.09;98.92;100075.66;4956940;28;19929;-92
2021/08/23 11:47:34;;;;;;;;;;;;;;;7.12;99.67;100069.44;4956692;28;19922;-91
2021/08/23 11:50:01;;;;;;;;;;;;;;;7.13;98.02;100069.38;4955340;28;20014;-91
2021/08/23 11:52:26;;;;;;;;;;;;;;;6.98;99.73;100062.72;4957892;28;19926;-90
2021/08/23 11:54:53;;;;;;;;;;;;;;;6.98;99.58;100068.00;4958024;28;19940;-91
2021/08/23 11:57:19;;;;;;;;;;;;;;;7.00;99.12;100074.06;4958885;28;20409;-94
2021/08/23 11:59:57;;;;;;;;;;;;;;;12.83;89.56;100056.16;4972134;28;19922;-88
2021/08/23 12:02:28;;;;;;;;;;;;;;;8.89;100.00;100068.06;4957405;28;19929;-91
2021/08/23 12:04:53;;;;;;;;;;;;;;;8.02;100.00;100060.94;4975049;28;19918;-93
2021/08/23 12:07:18;;;;;;;;;;;;;;;7.65;100.00;100061.94;4956752;28;20000;-87
2021/08/23 12:09:44;;;;;;;;;;;;;;;7.50;100.00;100060.56;4957581;28;19918;-87
2021/08/23 12:12:09;;;;;;;;;;;;;;;7.37;100.00;100070.56;4972803;28;20025;-90
2021/08/23 12:14:34;;;;;;;;;;;;;;;7.25;100.00;100062.97;4956317;28;19918;-91
2021/08/23 12:17:07;;;;;;;;;;;;;;;7.24;100.00;100069.13;4956537;28;19922;-88
2021/08/23 12:19:32;;;;;;;;;;;;;;;7.19;100.00;100063.09;4956450;28;19984;-88
2021/08/23 12:22:06;;;;;;;;;;;;;;;7.20;100.00;100059.59;4973696;28;19970;-92
2021/08/23 12:24:33;;;;;;;;;;;;;;;7.14;99.87;100059.72;4971371;28;19972;-88
2021/08/23 12:27:00;;;;;;;;;;;;;;;7.21;99.83;100062.19;4970897;28;19923;-90
2021/08/23 12:29:36;;;;;;;;;;;;;;;7.20;100.00;100064.84;4955020;28;19922;-91
2021/08/23 12:32:07;;;;;;;;;;;;;;;7.15;99.51;100061.44;4971743;28;19937;-92
2021/08/23 12:34:34;;;;;;;;;;;;;;;7.26;99.73;100068.19;4972026;28;19933;-90
2021/08/23 12:37:00;;;;;;;;;;;;;;;7.58;100.00;100055.09;4971806;28;20011;-90
2021/08/23 12:39:26;;;;;;;;;;;;;;;7.30;100.00;100061.06;4957230;28;19922;-90
2021/08/23 12:41:52;;;;;;;;;;;;;;;7.22;99.60;100049.84;4955446;28;19929;-93
2021/08/23 12:44:18;;;;;;;;;;;;;;;7.31;98.87;100049.63;4967883;28;19922;-93
2021/08/23 12:46:43;;;;;;;;;;;;;;;7.16;99.86;100053.50;4967640;28;19933;-92
2021/08/23 12:49:09;;;;;;;;;;;;;;;7.06;98.85;100050.22;4955600;28;19926;-92
2021/08/23 12:51:34;;;;;;;;;;;;;;;7.14;99.46;100052.69;4955594;28;19973;-86
2021/08/23 12:53:59;;;;;;;;;;;;;;;7.22;99.28;100055.13;4968400;28;20056;-88
2021/08/23 12:56:25;;;;;;;;;;;;;;;7.26;99.45;100054.16;4953961;28;19926;-86
2021/08/23 12:58:52;;;;;;;;;;;;;;;7.18;99.20;100050.81;4967172;28;19922;-92
2021/08/23 13:01:19;;;;;;;;;;;;;;;7.23;100.00;100054.25;4969194;28;19929;-87
2021/08/23 13:03:44;;;;;;;;;;;;;;;7.16;99.13;100056.13;4952108;28;20055;-90
2021/08/23 13:06:09;;;;;;;;;;;;;;;7.09;98.78;100050.16;4954667;28;19927;-92
2021/08/23 13:08:34;;;;;;;;;;;;;;;6.99;98.86;100051.28;4955254;28;20279;-92
2021/08/23 13:11:00;;;;;;;;;;;;;;;7.06;99.11;100041.47;4961803;28;19956;-92
2021/08/23 13:13:25;;;;;;;;;;;;;;;7.14;99.01;100044.78;4956139;28;19922;-94
2021/08/23 13:15:51;;;;;;;;;;;;;;;7.09;100.00;100050.16;4954481;28;19972;-86
2021/08/23 13:18:17;;;;;;;;;;;;;;;7.11;98.93;100047.47;4956418;28;19921;-94
2021/08/23 13:20:43;;;;;;;;;;;;;;;7.15;99.07;100040.34;4952617;28;20004;-91
2021/08/23 13:23:11;;;;;;;;;;;;;;;7.16;99.01;100040.31;4952850;28;20020;-92
2021/08/23 13:25:37;;;;;;;;;;;;;;;7.14;100.00;100041.28;4966666;28;19938;-86
2021/08/23 13:28:03;;;;;;;;;;;;;;;7.11;99.74;100036.09;4970636;28;20369;-90
2021/08/23 13:30:28;;;;;;;;;;;;;;;7.16;99.80;100031.56;4956266;28;19957;-90
2021/08/23 13:32:53;;;;;;;;;;;;;;;7.17;99.26;100035.94;4946197;28;19953;-93
2021/08/23 13:35:19;;;;;;;;;;;;;;;7.11;98.97;100039.56;4955780;28;19976;-87
2021/08/23 13:37:44;;;;;;;;;;;;;;;7.05;99.03;100035.34;4970188;28;20004;-89
2021/08/23 13:40:09;;;;;;;;;;;;;;;7.08;98.84;100040.53;4968522;28;20362;-87
2021/08/23 13:42:36;;;;;;;;;;;;;;;7.24;99.01;100037.50;4965677;28;19922;-92
2021/08/23 13:45:02;;;;;;;;;;;;;;;7.22;98.40;100036.69;4969527;28;20369;-88
2021/08/23 13:47:27;;;;;;;;;;;;;;;7.16;98.70;100031.56;4954435;28;20021;-89
2021/08/23 13:49:52;;;;;;;;;;;;;;;7.13;98.63;100035.13;4955223;28;19918;-87
2021/08/23 13:52:18;;;;;;;;;;;;;;;7.11;98.30;100029.03;4969360;28;19929;-92
2021/08/23 13:54:43;;;;;;;;;;;;;;;7.12;99.38;100027.28;4954390;28;20365;-88
2021/08/23 13:57:08;;;;;;;;;;;;;;;7.23;99.16;100025.25;4954293;28;20001;-90
2021/08/23 13:59:33;;;;;;;;;;;;;;;7.18;98.30;100027.09;4946598;28;20304;-91
2021/08/23 14:01:59;;;;;;;;;;;;;;;7.27;98.33;100021.59;4971800;28;19965;-88
2021/08/23 14:04:24;;;;;;;;;;;;;;;7.24;98.11;100019.03;4955574;28;19925;-92
2021/08/23 14:06:50;;;;;;;;;;;;;;;7.13;98.16;100029.00;4947856;28;19985;-88
2021/08/23 14:09:15;;;;;;;;;;;;;;;7.17;98.31;100026.25;4962692;28;19918;-91
2021/08/23 14:11:41;;;;;;;;;;;;;;;7.15;97.89;100024.53;4952463;28;19923;-91
2021/08/23 14:14:06;;;;;;;;;;;;;;;7.20;98.10;100026.19;4968096;28;21887;-87
2021/08/23 14:16:31;;;;;;;;;;;;;;;7.16;98.42;100027.16;4954058;28;19926;-90
2021/08/23 14:18:57;;;;;;;;;;;;;;;7.16;98.65;100034.19;4955703;28;19926;-89
2021/08/23 14:21:23;;;;;;;;;;;;;;;7.20;98.28;100025.31;4948629;28;19933;-86
2021/08/23 14:23:48;;;;;;;;;;;;;;;7.21;98.70;100027.91;4965836;28;19922;-89
2021/08/23 14:26:13;;;;;;;;;;;;;;;7.19;98.49;100029.69;4972355;28;19962;-93
2021/08/23 14:28:38;;;;;;;;;;;;;;;7.19;98.34;100031.47;4952985;28;20385;-86
2021/08/23 14:31:04;;;;;;;;;;;;;;;7.21;97.74;100029.66;4951139;28;20005;-89
2021/08/23 14:33:29;;;;;;;;;;;;;;;7.26;98.70;100027.81;4955169;28;20336;-87
2021/08/23 14:35:54;;;;;;;;;;;;;;;7.20;98.71;100034.09;4956479;28;19922;-88
2021/08/23 14:38:19;;;;;;;;;;;;;;;7.16;98.21;100034.19;4959215;28;19930;-87
2021/08/23 14:40:45;;;;;;;;;;;;;;;7.30;98.08;100037.34;4958920;28;19922;-90
2021/08/23 14:43:10;;;;;;;;;;;;;;;7.26;97.93;100036.56;4974908;28;19937;-88
2021/08/23 14:45:35;;;;;;;;;;;;;;;7.21;97.97;100033.19;4958529;28;20012;-88
2021/08/23 14:48:01;;;;;;;;;;;;;;;7.22;98.04;100040.16;4956298;28;19926;-89
2021/08/23 14:50:26;;;;;;;;;;;;;;;7.26;97.98;100040.97;4951590;28;19922;-87
2021/08/23 14:52:51;;;;;;;;;;;;;;;7.25;97.79;100029.56;4957840;28;20081;-91
2021/08/23 14:55:16;;;;;;;;;;;;;;;7.26;98.48;100035.72;4955501;28;20064;-90
2021/08/23 14:57:42;;;;;;;;;;;;;;;7.20;98.40;100035.88;4975817;28;19926;-86
2021/08/23 15:00:07;;;;;;;;;;;;;;;7.23;97.96;100035.78;4956716;28;20378;-86
2021/08/23 15:02:34;;;;;;;;;;;;;;;7.28;97.69;100036.53;4957491;28;20317;-90
2021/08/23 15:05:00;;;;;;;;;;;;;;;7.23;97.98;100046.34;4951411;28;19922;-89
2021/08/23 15:07:25;;;;;;;;;;;;;;;7.16;98.29;100044.75;4958297;28;19945;-86
2021/08/23 15:09:50;;;;;;;;;;;;;;;7.16;97.79;100039.47;4952429;28;20017;-86
2021/08/23 15:12:15;;;;;;;;;;;;;;;7.23;97.26;100046.34;4957662;28;19922;-87
2021/08/23 15:14:41;;;;;;;;;;;;;;;7.13;97.80;100047.44;4953288;28;19918;-87
2021/08/23 15:17:06;;;;;;;;;;;;;;;7.22;97.58;100045.44;4969785;28;19973;-87
2021/08/23 15:19:34;;;;;;;;;;;;;;;7.19;97.80;100048.16;4953582;28;19965;-87
2021/08/23 15:21:59;;;;;;;;;;;;;;;7.16;98.14;100045.59;4958212;28;19933;-86
2021/08/23 15:24:24;;;;;;;;;;;;;;;7.17;97.66;100054.38;4957683;28;19918;-87
2021/08/23 15:26:49;;;;;;;;;;;;;;;7.23;97.98;100059.50;4958078;28;20423;-87
2021/08/23 15:29:15;;;;;;;;;;;;;;;7.22;97.45;100057.75;4974424;28;20344;-89
2021/08/23 15:31:41;;;;;;;;;;;;;;;7.20;97.69;100059.59;4975370;28;19957;-92
2021/08/23 15:34:06;;;;;;;;;;;;;;;13.38;100.00;100038.44;4958124;28;19918;-78
2021/08/23 15:36:31;;;;;;;;;;;;;;;10.05;91.99;100043.00;4975583;28;19973;-89
2021/08/23 15:38:57;;;;;;;;;;;;;;;8.17;100.00;100052.59;4958285;28;20441;-92
2021/08/23 15:41:23;;;;;;;;;;;;;;;7.71;100.00;100053.00;4970927;28;19922;-94
2021/08/23 15:43:49;;;;;;;;;;;;;;;7.55;100.00;100053.41;4956450;28;19965;-89
2021/08/23 15:46:14;;;;;;;;;;;;;;;7.39;100.00;100055.56;4957211;28;19942;-92
2021/08/23 15:48:41;;;;;;;;;;;;;;;7.33;100.00;100060.13;4958652;28;19925;-89
2021/08/23 15:51:07;;;;;;;;;;;;;;;7.25;100.00;100061.19;4957846;28;20373;-88
2021/08/23 15:53:32;;;;;;;;;;;;;;;7.12;100.00;100067.66;4957824;28;19919;-89
2021/08/23 15:55:58;;;;;;;;;;;;;;;7.11;100.00;100068.56;4957611;28;19955;-90
2021/08/23 15:58:23;;;;;;;;;;;;;;;7.04;100.00;100065.22;4956955;28;19926;-90
2021/08/23 16:00:48;;;;;;;;;;;;;;;7.08;100.00;100066.88;4968701;28;19930;-89
2021/08/23 16:03:15;;;;;;;;;;;;;;;7.07;100.00;100070.41;4956888;28;19934;-89
2021/08/23 16:05:41;;;;;;;;;;;;;;;7.09;99.65;100068.59;4956889;28;20277;-89
2021/08/23 16:08:06;;;;;;;;;;;;;;;7.04;100.00;100075.75;4956670;28;19929;-89
2021/08/23 16:10:33;;;;;;;;;;;;;;;7.02;100.00;100068.78;4956735;28;19918;-89
2021/08/23 16:12:58;;;;;;;;;;;;;;;7.00;100.00;100074.06;4956158;28;19957;-89
2021/08/23 16:15:26;;;;;;;;;;;;;;;6.99;99.97;100061.84;4955992;28;19959;-88
2021/08/23 16:17:52;;;;;;;;;;;;;;;7.03;100.00;100071.38;4956518;28;19928;-89
2021/08/23 16:20:17;;;;;;;;;;;;;;;6.98;100.00;100078.53;4956665;28;19947;-90
2021/08/23 16:22:43;;;;;;;;;;;;;;;7.02;100.00;100074.94;4956736;28;19921;-89
2021/08/23 16:25:09;;;;;;;;;;;;;;;6.98;100.00;100070.63;4955923;28;19973;-90
2021/08/23 16:27:34;;;;;;;;;;;;;;;6.93;100.00;100084.81;4973105;28;20478;-89
2021/08/23 16:29:59;;;;;;;;;;;;;;;7.06;100.00;100081.84;4955462;28;20365;-89
2021/08/23 16:32:25;;;;;;;;;;;;;;;6.98;100.00;100088.22;4956929;28;19922;-89
2021/08/23 16:34:50;;;;;;;;;;;;;;;7.14;100.00;100089.56;4951942;28;19914;-89
2021/08/23 16:37:15;;;;;;;;;;;;;;;7.13;100.00;100092.25;4956756;28;20381;-89
2021/08/23 16:39:41;;;;;;;;;;;;;;;7.08;100.00;100095.88;4956487;28;19925;-89
2021/08/23 16:42:06;;;;;;;;;;;;;;;7.09;100.00;100104.63;4956831;28;19918;-92
2021/08/23 16:44:32;;;;;;;;;;;;;;;7.01;100.00;100098.69;4955865;28;19918;-90
2021/08/23 16:46:57;;;;;;;;;;;;;;;7.01;100.00;100096.91;4956620;28;19918;-89
2021/08/23 16:49:23;;;;;;;;;;;;;;;7.02;100.00;100105.66;4956287;28;20309;-90
2021/08/23 16:51:49;;;;;;;;;;;;;;;6.97;100.00;100097.00;4956373;28;20389;-89
2021/08/23 16:54:14;;;;;;;;;;;;;;;6.95;100.00;100102.31;4956289;28;20005;-89
2021/08/23 16:56:40;;;;;;;;;;;;;;;6.94;100.00;100103.22;4956506;28;20052;-90
2021/08/23 16:59:05;;;;;;;;;;;;;;;7.01;100.00;100096.91;4954452;28;19918;-89
2021/08/23 17:01:30;;;;;;;;;;;;;;;6.95;100.00;100099.69;4974074;28;19922;-90
2021/08/23 17:03:56;;;;;;;;;;;;;;;6.96;100.00;100100.56;4969003;28;19988;-89
2021/08/23 17:06:21;;;;;;;;;;;;;;;7.00;100.00;100094.31;4952348;28;20349;-89
2021/08/23 17:08:46;;;;;;;;;;;;;;;6.99;100.00;100106.63;4955771;28;19965;-89
2021/08/23 17:11:12;;;;;;;;;;;;;;;6.91;100.00;100095.41;4955664;28;19922;-89
2021/08/23 17:13:37;;;;;;;;;;;;;;;6.98;100.00;100093.47;4971786;28;19922;-89
2021/08/23 17:16:04;;;;;;;;;;;;;;;7.04;100.00;100099.47;4955299;28;19923;-90
2021/08/23 17:18:32;;;;;;;;;;;;;;;7.05;100.00;100095.94;4954964;28;22222;-89
2021/08/23 17:20:59;;;;;;;;;;;;;;;6.94;100.00;100092.69;4955598;28;19922;-89
2021/08/23 17:23:25;;;;;;;;;;;;;;;6.97;100.00;100095.22;4955283;28;20377;-89
2021/08/23 17:25:50;;;;;;;;;;;;;;;7.10;100.00;100101.09;4955856;28;19990;-89
2021/08/23 17:28:15;;;;;;;;;;;;;;;6.97;100.00;100095.22;4954998;28;19957;-89
2021/08/23 17:30:41;;;;;;;;;;;;;;;7.08;100.00;100098.50;4973346;28;19922;-90
2021/08/23 17:33:06;;;;;;;;;;;;;;;7.03;100.00;100094.22;4955841;28;19918;-89
2021/08/23 17:35:31;;;;;;;;;;;;;;;7.04;100.00;100094.19;4956045;28;19918;-89
2021/08/23 17:37:57;;;;;;;;;;;;;;;7.04;100.00;100098.59;4955217;28;19922;-89
2021/08/23 17:40:22;;;;;;;;;;;;;;;7.08;100.00;100101.16;4954456;28;19922;-89
2021/08/23 17:42:48;;;;;;;;;;;;;;;7.02;100.00;100103.03;4954661;28;19921;-89
2021/08/23 17:45:13;;;;;;;;;;;;;;;7.01;100.00;100115.34;4953924;28;19926;-89
2021/08/23 17:47:39;;;;;;;;;;;;;;;7.00;100.00;100118.88;4954637;28;20584;-88
2021/08/23 17:50:04;;;;;;;;;;;;;;;7.01;100.00;100123.25;4972284;28;20009;-89
2021/08/23 17:52:30;;;;;;;;;;;;;;;6.93;100.00;100125.19;4954526;28;19933;-88
2021/08/23 17:54:55;;;;;;;;;;;;;;;6.99;100.00;100132.97;4954872;28;19929;-88
2021/08/23 17:57:20;;;;;;;;;;;;;;;7.03;100.00;100134.63;4954282;28;20394;-89
2021/08/23 17:59:45;;;;;;;;;;;;;;;7.05;100.00;100131.94;4953274;28;19930;-89
2021/08/23 18:02:11;;;;;;;;;;;;;;;7.04;100.00;100135.50;4954709;28;19968;-89
2021/08/23 18:04:36;;;;;;;;;;;;;;;7.01;100.00;100138.19;4955220;28;19922;-89
2021/08/23 18:07:03;;;;;;;;;;;;;;;6.98;100.00;100141.75;4972440;28;20297;-89
2021/08/23 18:09:28;;;;;;;;;;;;;;;6.92;100.00;100152.44;4955764;28;20330;-88
2021/08/23 18:11:53;;;;;;;;;;;;;;;6.96;100.00;100154.09;4957970;28;20061;-89
2021/08/23 18:14:19;;;;;;;;;;;;;;;7.02;100.00;100153.97;4957228;28;19937;-89
2021/08/23 18:16:44;;;;;;;;;;;;;;;7.03;100.00;100157.47;4957546;28;19933;-89
2021/08/23 18:19:09;;;;;;;;;;;;;;;7.01;100.00;100151.38;4958700;28;19922;-89
2021/08/23 18:21:35;;;;;;;;;;;;;;;6.89;100.00;100153.38;4958977;28;20005;-90
2021/08/23 18:24:00;;;;;;;;;;;;;;;6.97;100.00;100161.09;4958725;28;19922;-88
2021/08/23 18:26:25;;;;;;;;;;;;;;;6.98;100.00;100160.22;4976507;28;20013;-89
2021/08/23 18:28:51;;;;;;;;;;;;;;;6.96;100.00;100164.66;4974997;28;19922;-89
2021/08/23 18:31:16;;;;;;;;;;;;;;;7.04;100.00;100162.72;4957947;28;19930;-89
2021/08/23 18:33:41;;;;;;;;;;;;;;;6.95;100.00;100162.91;4958414;28;20026;-89
2021/08/23 18:36:06;;;;;;;;;;;;;;;6.94;100.00;100165.56;4958657;28;20416;-88
2021/08/23 18:38:32;;;;;;;;;;;;;;;6.91;100.00;100170.00;4958374;28;19925;-90
2021/08/23 18:40:58;;;;;;;;;;;;;;;6.91;100.00;100174.44;4953923;28;19977;-89
2021/08/23 18:43:29;;;;;;;;;;;;;;;6.96;100.00;100180.47;4956690;28;19918;-89
2021/08/23 18:45:55;;;;;;;;;;;;;;;6.93;100.00;100180.53;4958971;28;19925;-88
2021/08/23 18:48:21;;;;;;;;;;;;;;;6.96;100.00;100185.72;4958405;28;20286;-88
2021/08/23 18:50:46;;;;;;;;;;;;;;;6.93;100.00;100188.44;4958475;28;19934;-89
2021/08/23 18:53:11;;;;;;;;;;;;;;;6.92;100.00;100184.03;4958557;28;20033;-89
2021/08/23 18:55:36;;;;;;;;;;;;;;;6.94;100.00;100190.16;4956609;28;19922;-90
2021/08/23 18:58:02;;;;;;;;;;;;;;;6.95;100.00;100191.03;4974146;28;20345;-89
2021/08/23 19:00:27;;;;;;;;;;;;;;;6.91;100.00;100191.09;4958203;28;19986;-88
2021/08/23 19:02:53;;;;;;;;;;;;;;;6.90;100.00;100199.03;4957838;28;19985;-89